Observation data for Spur on 08/20/2019      Previous  Date  Next       Current Mesonet Observations  Soil Data  Daily Summary Page  Observations in Plain Language
KSP1 200500Z 15008KT 30/16 A3001 RMK A01 T02970161  RH  046%=      5-min Rain = 0
KSP1 200505Z 15009G14KT 30/16 A3001 RMK A01 T02960161  RH  046%=      5-min Rain = 0
KSP1 200510Z 15009KT 30/16 A3001 RMK A01 T02960162  RH  046%=      5-min Rain = 0
KSP1 200515Z 15008G13KT 30/16 A3001 RMK A01 T02950162  RH  047%=      5-min Rain = 0
KSP1 200520Z 15008KT 29/16 A3001 RMK A01 T02940163  RH  047%=      5-min Rain = 0
KSP1 200525Z 15009KT 29/16 A3001 RMK A01 T02930163  RH  048%=      5-min Rain = 0
KSP1 200530Z 15009G14KT 29/16 A3001 RMK A01 T02940163  RH  048%=      5-min Rain = 0
KSP1 200535Z 15009KT 29/16 A3001 RMK A01 T02940164  RH  048%=      5-min Rain = 0
KSP1 200540Z 15007KT 29/16 A3001 RMK A01 T02920164  RH  048%=      5-min Rain = 0
KSP1 200545Z 15008KT 29/16 A3001 RMK A01 T02910164  RH  049%=      5-min Rain = 0
KSP1 200550Z 15008G13KT 29/17 A3001 RMK A01 T02900165  RH  049%=      5-min Rain = 0
KSP1 200555Z 15007KT 29/17 A3001 RMK A01 T02900165  RH  049%=      5-min Rain = 0
KSP1 200600Z 15008KT 29/17 A3001 RMK A01 T02900165  RH  049%=      5-min Rain = 0
KSP1 200605Z 15007G12KT 29/17 A3001 RMK A01 T02880165  RH  050%=      5-min Rain = 0
KSP1 200610Z 15007KT 29/17 A3001 RMK A01 T02860166  RH  050%=      5-min Rain = 0
KSP1 200615Z 15007KT 29/17 A3001 RMK A01 T02850166  RH  051%=      5-min Rain = 0
KSP1 200620Z 15006KT 28/17 A3001 RMK A01 T02830166  RH  052%=      5-min Rain = 0
KSP1 200625Z 15006KT 28/17 A3001 RMK A01 T02820166  RH  052%=      5-min Rain = 0
KSP1 200630Z 15006KT 28/17 A3001 RMK A01 T02810167  RH  053%=      5-min Rain = 0
KSP1 200635Z 16005KT 28/17 A3001 RMK A01 T02800167  RH  053%=      5-min Rain = 0
KSP1 200640Z 16005KT 28/17 A3002 RMK A01 T02790167  RH  053%=      5-min Rain = 0
KSP1 200645Z 16005KT 28/17 A3002 RMK A01 T02780168  RH  054%=      5-min Rain = 0
KSP1 200650Z 17005KT 28/17 A3002 RMK A01 T02770168  RH  054%=      5-min Rain = 0
KSP1 200655Z 17004KT 28/17 A3002 RMK A01 T02770168  RH  054%=      5-min Rain = 0
KSP1 200700Z 17004KT 28/17 A3002 RMK A01 T02750169  RH  055%=      5-min Rain = 0
KSP1 200705Z 17004KT 27/17 A3002 RMK A01 T02730169  RH  056%=      5-min Rain = 0
KSP1 200710Z 17003KT 27/17 A3002 RMK A01 T02710169  RH  056%=      5-min Rain = 0
KSP1 200715Z 18003KT 27/17 A3002 RMK A01 T02690169  RH  057%=      5-min Rain = 0
KSP1 200720Z 19003KT 27/17 A3001 RMK A01 T02670170  RH  058%=      5-min Rain = 0
KSP1 200725Z 20004KT 27/17 A3001 RMK A01 T02660170  RH  058%=      5-min Rain = 0
KSP1 200730Z 20004KT 27/17 A3001 RMK A01 T02650170  RH  059%=      5-min Rain = 0
KSP1 200735Z 19004KT 27/17 A3001 RMK A01 T02650169  RH  059%=      5-min Rain = 0
KSP1 200740Z 18004KT 27/17 A3001 RMK A01 T02660169  RH  058%=      5-min Rain = 0
KSP1 200745Z 18004KT 27/17 A3001 RMK A01 T02660168  RH  058%=      5-min Rain = 0
KSP1 200750Z 18004KT 27/17 A3001 RMK A01 T02670168  RH  057%=      5-min Rain = 0
KSP1 200755Z 18004KT 27/17 A3001 RMK A01 T02670167  RH  057%=      5-min Rain = 0
KSP1 200800Z 18003KT 27/17 A3001 RMK A01 T02670167  RH  057%=      5-min Rain = 0
KSP1 200805Z 19004KT 27/17 A3001 RMK A01 T02670166  RH  057%=      5-min Rain = 0
KSP1 200810Z 20004KT 27/17 A3002 RMK A01 T02660166  RH  057%=      5-min Rain = 0
KSP1 200815Z 22003KT 26/17 A3002 RMK A01 T02640166  RH  058%=      5-min Rain = 0
KSP1 200820Z 25003KT 26/17 A3002 RMK A01 T02590167  RH  060%=      5-min Rain = 0
KSP1 200825Z 24003KT 26/17 A3002 RMK A01 T02560166  RH  060%=      5-min Rain = 0
KSP1 200830Z 22003KT 26/17 A3002 RMK A01 T02550166  RH  061%=      5-min Rain = 0
KSP1 200835Z 22002KT 25/17 A3002 RMK A01 T02540168  RH  062%=      5-min Rain = 0
KSP1 200840Z 21002KT 25/17 A3002 RMK A01 T02510167  RH  062%=      5-min Rain = 0
KSP1 200845Z 19002KT 25/17 A3002 RMK A01 T02500165  RH  062%=      5-min Rain = 0
KSP1 200850Z 17002KT 25/17 A3002 RMK A01 T02510165  RH  062%=      5-min Rain = 0
KSP1 200855Z 17002KT 25/17 A3002 RMK A01 T02510167  RH  063%=      5-min Rain = 0
KSP1 200900Z 17001KT 25/17 A3002 RMK A01 T02490168  RH  064%=      5-min Rain = 0
KSP1 200905Z 17001KT 25/17 A3002 RMK A01 T02480168  RH  064%=      5-min Rain = 0
KSP1 200910Z 19002KT 25/17 A3002 RMK A01 T02490168  RH  064%=      5-min Rain = 0
KSP1 200915Z 18002KT 25/17 A3002 RMK A01 T02500166  RH  062%=      5-min Rain = 0
KSP1 200920Z 19002KT 25/16 A3002 RMK A01 T02530163  RH  060%=      5-min Rain = 0
KSP1 200925Z 19002KT 26/16 A3002 RMK A01 T02570162  RH  059%=      5-min Rain = 0
KSP1 200930Z 19002KT 26/16 A3002 RMK A01 T02570163  RH  059%=      5-min Rain = 0
KSP1 200935Z 19002KT 26/16 A3002 RMK A01 T02550164  RH  060%=      5-min Rain = 0
KSP1 200940Z 19002KT 25/17 A3002 RMK A01 T02520166  RH  062%=      5-min Rain = 0
KSP1 200945Z 20002KT 25/17 A3002 RMK A01 T02500165  RH  062%=      5-min Rain = 0
KSP1 200950Z 20002KT 25/17 A3002 RMK A01 T02490165  RH  062%=      5-min Rain = 0
KSP1 200955Z 21002KT 25/17 A3002 RMK A01 T02480165  RH  063%=      5-min Rain = 0
KSP1 201000Z 24001KT 25/17 A3002 RMK A01 T02470167  RH  064%=      5-min Rain = 0
KSP1 201005Z 26001KT 24/17 A3003 RMK A01 T02380170  RH  069%=      5-min Rain = 0
KSP1 201010Z 28002KT 23/17 A3003 RMK A01 T02310170  RH  072%=      5-min Rain = 0
KSP1 201015Z 31003KT 23/17 A3003 RMK A01 T02280167  RH  072%=      5-min Rain = 0
KSP1 201020Z 32004KT 23/17 A3003 RMK A01 T02260166  RH  072%=      5-min Rain = 0
KSP1 201025Z 31002KT 22/17 A3003 RMK A01 T02230166  RH  073%=      5-min Rain = 0
KSP1 201030Z 32002KT 22/17 A3003 RMK A01 T02240166  RH  073%=      5-min Rain = 0
KSP1 201035Z 31002KT 22/17 A3003 RMK A01 T02240166  RH  073%=      5-min Rain = 0
KSP1 201040Z 31002KT 22/17 A3003 RMK A01 T02240166  RH  073%=      5-min Rain = 0
KSP1 201045Z 31001KT 23/17 A3003 RMK A01 T02250166  RH  073%=      5-min Rain = 0
KSP1 201050Z 34000KT 23/17 A3003 RMK A01 T02250165  RH  072%=      5-min Rain = 0
KSP1 201055Z 34001KT 23/17 A3004 RMK A01 T02260167  RH  073%=      5-min Rain = 0
KSP1 201100Z 36001KT 23/17 A3004 RMK A01 T02250167  RH  073%=      5-min Rain = 0
KSP1 201105Z 01001KT 23/17 A3004 RMK A01 T02260169  RH  074%=      5-min Rain = 0
KSP1 201110Z 36001KT 23/17 A3004 RMK A01 T02260168  RH  073%=      5-min Rain = 0
KSP1 201115Z 33002KT 22/17 A3003 RMK A01 T02240168  RH  074%=      5-min Rain = 0
KSP1 201120Z 34002KT 22/17 A3004 RMK A01 T02210169  RH  076%=      5-min Rain = 0
KSP1 201125Z 02002KT 22/17 A3004 RMK A01 T02200168  RH  076%=      5-min Rain = 0
KSP1 201130Z 02002KT 22/17 A3004 RMK A01 T02200167  RH  075%=      5-min Rain = 0
KSP1 201135Z 33001KT 22/17 A3004 RMK A01 T02200168  RH  076%=      5-min Rain = 0
KSP1 201140Z 00001KT 22/17 A3004 RMK A01 T02190167  RH  076%=      5-min Rain = 0
KSP1 201145Z 02002KT 22/17 A3004 RMK A01 T02170167  RH  077%=      5-min Rain = 0
KSP1 201150Z 03001KT 22/17 A3004 RMK A01 T02170168  RH  077%=      5-min Rain = 0
KSP1 201155Z 04000KT 22/17 A3004 RMK A01 T02170167  RH  077%=      5-min Rain = 0
KSP1 201200Z 30000KT 22/17 A3004 RMK A01 T02170169  RH  078%=      5-min Rain = 0
KSP1 201205Z 33001KT 22/17 A3004 RMK A01 T02160169  RH  078%=      5-min Rain = 0
KSP1 201210Z 35002KT 21/17 A3005 RMK A01 T02140168  RH  079%=      5-min Rain = 0
KSP1 201215Z 34003KT 21/17 A3005 RMK A01 T02140167  RH  078%=      5-min Rain = 0
KSP1 201220Z 31002KT 21/17 A3005 RMK A01 T02130167  RH  079%=      5-min Rain = 0
KSP1 201225Z 30002KT 22/17 A3005 RMK A01 T02160168  RH  078%=      5-min Rain = 0
KSP1 201230Z 31001KT 22/17 A3005 RMK A01 T02180169  RH  077%=      5-min Rain = 0
KSP1 201235Z 34002KT 22/17 A3005 RMK A01 T02200168  RH  076%=      5-min Rain = 0
KSP1 201240Z 32003KT 22/17 A3005 RMK A01 T02190170  RH  077%=      5-min Rain = 0
KSP1 201245Z 33003KT 22/17 A3006 RMK A01 T02190169  RH  077%=      5-min Rain = 0
KSP1 201250Z 33003KT 22/17 A3006 RMK A01 T02200170  RH  077%=      5-min Rain = 0
KSP1 201255Z 31002KT 22/17 A3006 RMK A01 T02230170  RH  076%=      5-min Rain = 0
KSP1 201300Z 30003KT 23/17 A3006 RMK A01 T02270170  RH  074%=      5-min Rain = 0
KSP1 201305Z 32003KT 23/17 A3006 RMK A01 T02320171  RH  072%=      5-min Rain = 0
KSP1 201310Z 33003KT 24/17 A3006 RMK A01 T02360171  RH  070%=      5-min Rain = 0
KSP1 201315Z 32004KT 24/17 A3006 RMK A01 T02400171  RH  068%=      5-min Rain = 0
KSP1 201320Z 32004KT 24/17 A3006 RMK A01 T02420169  RH  067%=      5-min Rain = 0
KSP1 201325Z 31003KT 25/17 A3006 RMK A01 T02450168  RH  065%=      5-min Rain = 0
KSP1 201330Z 31003KT 25/17 A3006 RMK A01 T02490168  RH  064%=      5-min Rain = 0
KSP1 201335Z 32002KT 25/17 A3006 RMK A01 T02540169  RH  062%=      5-min Rain = 0
KSP1 201340Z 32002KT 26/17 A3006 RMK A01 T02610170  RH  060%=      5-min Rain = 0
KSP1 201345Z 29002KT 27/17 A3006 RMK A01 T02680166  RH  056%=      5-min Rain = 0
KSP1 201350Z 27001KT 27/17 A3006 RMK A01 T02700166  RH  056%=      5-min Rain = 0
KSP1 201355Z 30001KT 27/17 A3007 RMK A01 T02730168  RH  055%=      5-min Rain = 0
KSP1 201400Z 26002KT 28/17 A3006 RMK A01 T02770169  RH  054%=      5-min Rain = 0
KSP1 201405Z 28003KT 28/17 A3007 RMK A01 T02800167  RH  053%=      5-min Rain = 0
KSP1 201410Z 24002KT 28/17 A3007 RMK A01 T02830168  RH  052%=      5-min Rain = 0
KSP1 201415Z 24004KT 29/17 A3007 RMK A01 T02880167  RH  050%=      5-min Rain = 0
KSP1 201420Z 22003KT 29/17 A3007 RMK A01 T02910166  RH  049%=      5-min Rain = 0
KSP1 201425Z 22004KT 29/17 A3007 RMK A01 T02920166  RH  049%=      5-min Rain = 0
KSP1 201430Z 22005KT 30/17 A3007 RMK A01 T02970168  RH  048%=      5-min Rain = 0
KSP1 201435Z 22006KT 30/17 A3007 RMK A01 T02980168  RH  048%=      5-min Rain = 0
KSP1 201440Z 23005KT 30/17 A3007 RMK A01 T03020169  RH  047%=      5-min Rain = 0
KSP1 201445Z 23009KT 30/17 A3007 RMK A01 T03040170  RH  047%=      5-min Rain = 0
KSP1 201450Z 24009KT 30/17 A3007 RMK A01 T03030169  RH  047%=      5-min Rain = 0
KSP1 201455Z 24009KT 31/17 A3007 RMK A01 T03050170  RH  047%=      5-min Rain = 0
KSP1 201500Z 24008KT 31/17 A3007 RMK A01 T03060169  RH  046%=      5-min Rain = 0
KSP1 201505Z 25007KT 31/17 A3007 RMK A01 T03090170  RH  045%=      5-min Rain = 0
KSP1 201510Z 25007KT 31/17 A3007 RMK A01 T03110171  RH  045%=      5-min Rain = 0
KSP1 201515Z 25008G14KT 31/17 A3007 RMK A01 T03140171  RH  044%=      5-min Rain = 0
KSP1 201520Z 23008G13KT 31/17 A3007 RMK A01 T03140171  RH  044%=      5-min Rain = 0
KSP1 201525Z 24007G13KT 32/17 A3007 RMK A01 T03180171  RH  044%=      5-min Rain = 0
KSP1 201530Z 22008KT 32/17 A3007 RMK A01 T03170171  RH  044%=      5-min Rain = 0
KSP1 201535Z 23008KT 32/17 A3007 RMK A01 T03190170  RH  043%=      5-min Rain = 0
KSP1 201540Z 23008G17KT 32/17 A3007 RMK A01 T03210171  RH  043%=      5-min Rain = 0
KSP1 201545Z 22006G11KT 33/17 A3008 RMK A01 T03250172  RH  042%=      5-min Rain = 0
KSP1 201550Z 26006KT 32/17 A3007 RMK A01 T03240171  RH  042%=      5-min Rain = 0
KSP1 201555Z 26005KT 33/17 A3008 RMK A01 T03250171  RH  042%=      5-min Rain = 0
KSP1 201600Z 22007KT 33/17 A3007 RMK A01 T03280171  RH  041%=      5-min Rain = 0
KSP1 201605Z 23008KT 33/17 A3008 RMK A01 T03300170  RH  040%=      5-min Rain = 0
KSP1 201610Z 22007KT 33/17 A3008 RMK A01 T03310170  RH  040%=      5-min Rain = 0
KSP1 201615Z 22007KT 33/17 A3008 RMK A01 T03320168  RH  040%=      5-min Rain = 0
KSP1 201620Z 24005G10KT 33/17 A3008 RMK A01 T03330169  RH  039%=      5-min Rain = 0
KSP1 201625Z 21005G11KT 34/17 A3008 RMK A01 T03360169  RH  039%=      5-min Rain = 0
KSP1 201630Z 24006G12KT 34/17 A3008 RMK A01 T03370169  RH  039%=      5-min Rain = 0
KSP1 201635Z 23007G12KT 34/17 A3008 RMK A01 T03360168  RH  039%=      5-min Rain = 0
KSP1 201640Z 22009KT 34/17 A3008 RMK A01 T03390165  RH  037%=      5-min Rain = 0
KSP1 201645Z 21006G12KT 34/17 A3008 RMK A01 T03410165  RH  037%=      5-min Rain = 0
KSP1 201650Z 17005KT 34/17 A3008 RMK A01 T03400165  RH  037%=      5-min Rain = 0
KSP1 201655Z 18006KT 34/17 A3008 RMK A01 T03420165  RH  037%=      5-min Rain = 0
KSP1 201700Z 19006G11KT 35/16 A3008 RMK A01 T03460164  RH  036%=      5-min Rain = 0
KSP1 201705Z 21006KT 35/17 A3008 RMK A01 T03480166  RH  036%=      5-min Rain = 0
KSP1 201710Z 17005KT 35/17 A3007 RMK A01 T03470167  RH  036%=      5-min Rain = 0
KSP1 201715Z 18006G11KT 35/17 A3007 RMK A01 T03500165  RH  035%=      5-min Rain = 0
KSP1 201720Z 15004G9KT 35/17 A3007 RMK A01 T03480165  RH  035%=      5-min Rain = 0
KSP1 201725Z 16004G9KT 35/16 A3007 RMK A01 T03480163  RH  035%=      5-min Rain = 0
KSP1 201730Z 17009KT 35/16 A3007 RMK A01 T03530161  RH  033%=      5-min Rain = 0
KSP1 201735Z 18007KT 35/16 A3007 RMK A01 T03530158  RH  033%=      5-min Rain = 0
KSP1 201740Z 15008KT 36/16 A3007 RMK A01 T03550163  RH  034%=      5-min Rain = 0
KSP1 201745Z 14005KT 35/16 A3007 RMK A01 T03540160  RH  033%=      5-min Rain = 0
KSP1 201750Z 18009KT 36/16 A3007 RMK A01 T03570159  RH  032%=      5-min Rain = 0
KSP1 201755Z 18008KT 36/16 A3006 RMK A01 T03590158  RH  032%=      5-min Rain = 0
KSP1 201800Z 15004KT 35/16 A3006 RMK A01 T03530159  RH  033%=      5-min Rain = 0
KSP1 201805Z 14007G14KT 36/16 A3006 RMK A01 T03590158  RH  032%=      5-min Rain = 0
KSP1 201810Z 15007G12KT 36/16 A3006 RMK A01 T03620156  RH  031%=      5-min Rain = 0
KSP1 201815Z 16008KT 36/15 A3006 RMK A01 T03640154  RH  030%=      5-min Rain = 0
KSP1 201820Z 17006G12KT 36/16 A3006 RMK A01 T03580156  RH  032%=      5-min Rain = 0
KSP1 201825Z 17007G13KT 36/16 A3006 RMK A01 T03590157  RH  032%=      5-min Rain = 0
KSP1 201830Z 17007G12KT 36/16 A3006 RMK A01 T03600156  RH  031%=      5-min Rain = 0
KSP1 201835Z 15003G10KT 36/16 A3006 RMK A01 T03630156  RH  031%=      5-min Rain = 0
KSP1 201840Z 20006G11KT 36/16 A3006 RMK A01 T03620155  RH  031%=      5-min Rain = 0
KSP1 201845Z 20007KT 37/16 A3006 RMK A01 T03650156  RH  030%=      5-min Rain = 0
KSP1 201850Z 12004KT 37/16 A3006 RMK A01 T03670157  RH  030%=      5-min Rain = 0
KSP1 201855Z 19005KT 36/16 A3005 RMK A01 T03640158  RH  031%=      5-min Rain = 0
KSP1 201900Z 19007KT 37/16 A3005 RMK A01 T03650155  RH  030%=      5-min Rain = 0
KSP1 201905Z 19006KT 37/15 A3005 RMK A01 T03670153  RH  029%=      5-min Rain = 0
KSP1 201910Z 15006G12KT 37/16 A3005 RMK A01 T03680158  RH  030%=      5-min Rain = 0
KSP1 201915Z 11007KT 37/15 A3004 RMK A01 T03700154  RH  029%=      5-min Rain = 0
KSP1 201920Z 18007G12KT 37/15 A3004 RMK A01 T03700153  RH  029%=      5-min Rain = 0
KSP1 201925Z 15008G13KT 37/15 A3004 RMK A01 T03710151  RH  028%=      5-min Rain = 0
KSP1 201930Z 15008KT 37/15 A3004 RMK A01 T03680150  RH  029%=      5-min Rain = 0
KSP1 201935Z 16006G12KT 37/15 A3004 RMK A01 T03690151  RH  029%=      5-min Rain = 0
KSP1 201940Z 16004G10KT 37/15 A3004 RMK A01 T03670149  RH  029%=      5-min Rain = 0
KSP1 201945Z 13007KT 38/15 A3004 RMK A01 T03760149  RH  027%=      5-min Rain = 0
KSP1 201950Z 12008G16KT 37/14 A3003 RMK A01 T03690144  RH  027%=      5-min Rain = 0
KSP1 201955Z 17006G11KT 37/15 A3003 RMK A01 T03690145  RH  028%=      5-min Rain = 0
KSP1 202000Z 16010G16KT 37/14 A3003 RMK A01 T03720141  RH  026%=      5-min Rain = 0
KSP1 202005Z 20007G12KT 37/14 A3003 RMK A01 T03710139  RH  026%=      5-min Rain = 0
KSP1 202010Z 15006G11KT 37/14 A3003 RMK A01 T03710142  RH  027%=      5-min Rain = 0
KSP1 202015Z 15008G13KT 37/14 A3003 RMK A01 T03730142  RH  026%=      5-min Rain = 0
KSP1 202020Z 13005KT 37/14 A3003 RMK A01 T03730142  RH  026%=      5-min Rain = 0
KSP1 202025Z 16011G16KT 38/14 A3002 RMK A01 T03760142  RH  026%=      5-min Rain = 0
KSP1 202030Z 14008G13KT 38/14 A3002 RMK A01 T03760143  RH  026%=      5-min Rain = 0
KSP1 202035Z 15005G10KT 38/14 A3002 RMK A01 T03760136  RH  025%=      5-min Rain = 0
KSP1 202040Z 14007G16KT 37/15 A3002 RMK A01 T03710147  RH  028%=      5-min Rain = 0
KSP1 202045Z 16009G14KT 38/15 A3001 RMK A01 T03760150  RH  027%=      5-min Rain = 0
KSP1 202050Z 17008KT 38/15 A3001 RMK A01 T03790149  RH  027%=      5-min Rain = 0
KSP1 202055Z 17008G16KT 38/15 A3001 RMK A01 T03780151  RH  027%=      5-min Rain = 0
KSP1 202100Z 16005G11KT 37/15 A3001 RMK A01 T03740149  RH  028%=      5-min Rain = 0
KSP1 202105Z 15009KT 37/15 A30 RMK A01 T03650149  RH  029%=      5-min Rain = 0
KSP1 202110Z 15006KT 37/15 A30 RMK A01 T03710149  RH  028%=      5-min Rain = 0
KSP1 202115Z 15007G14KT 38/15 A30 RMK A01 T03760148  RH  027%=      5-min Rain = 0
KSP1 202120Z 18010G15KT 38/15 A30 RMK A01 T03780147  RH  027%=      5-min Rain = 0
KSP1 202125Z 16009G16KT 38/14 A30 RMK A01 T03800144  RH  026%=      5-min Rain = 0
KSP1 202130Z 15006G13KT 38/14 A30 RMK A01 T03770143  RH  026%=      5-min Rain = 0
KSP1 202135Z 13008G13KT 38/14 A2999 RMK A01 T03750141  RH  026%=      5-min Rain = 0
KSP1 202140Z 12010G17KT 38/14 A2999 RMK A01 T03760140  RH  026%=      5-min Rain = 0
KSP1 202145Z 12008G13KT 37/14 A2999 RMK A01 T03730142  RH  026%=      5-min Rain = 0
KSP1 202150Z 12010G16KT 38/14 A2999 RMK A01 T03750144  RH  026%=      5-min Rain = 0
KSP1 202155Z 12007G12KT 38/14 A2999 RMK A01 T03760141  RH  026%=      5-min Rain = 0
KSP1 202200Z 14008G14KT 38/14 A2999 RMK A01 T03770138  RH  025%=      5-min Rain = 0
KSP1 202205Z 14010G15KT 38/14 A2999 RMK A01 T03760137  RH  025%=      5-min Rain = 0
KSP1 202210Z 14007G13KT 38/14 A2999 RMK A01 T03770136  RH  025%=      5-min Rain = 0
KSP1 202215Z 15008KT 38/14 A2998 RMK A01 T03780136  RH  025%=      5-min Rain = 0
KSP1 202220Z 10009G14KT 38/13 A2998 RMK A01 T03770129  RH  024%=      5-min Rain = 0
KSP1 202225Z 10009KT 37/13 A2998 RMK A01 T03740129  RH  024%=      5-min Rain = 0
KSP1 202230Z 11008G13KT 38/13 A2998 RMK A01 T03770128  RH  024%=      5-min Rain = 0
KSP1 202235Z 12008KT 38/12 A2998 RMK A01 T03750124  RH  023%=      5-min Rain = 0
KSP1 202240Z 12009G15KT 38/12 A2998 RMK A01 T03780120  RH  022%=      5-min Rain = 0
KSP1 202245Z 13007KT 38/12 A2998 RMK A01 T03780123  RH  023%=      5-min Rain = 0
KSP1 202250Z 12007KT 38/12 A2998 RMK A01 T03770118  RH  022%=      5-min Rain = 0
KSP1 202255Z 14005KT 38/12 A2998 RMK A01 T03760119  RH  022%=      5-min Rain = 0
KSP1 202300Z 13006KT 38/12 A2998 RMK A01 T03760116  RH  022%=      5-min Rain = 0
KSP1 202305Z 14007KT 38/12 A2998 RMK A01 T03770119  RH  022%=      5-min Rain = 0
KSP1 202310Z 13008G13KT 38/12 A2998 RMK A01 T03770118  RH  022%=      5-min Rain = 0
KSP1 202315Z 14008KT 37/11 A2998 RMK A01 T03740114  RH  022%=      5-min Rain = 0
KSP1 202320Z 13007KT 38/12 A2998 RMK A01 T03760117  RH  022%=      5-min Rain = 0
KSP1 202325Z 13008G15KT 37/12 A2998 RMK A01 T03730120  RH  023%=      5-min Rain = 0
KSP1 202330Z 14009G16KT 37/12 A2998 RMK A01 T03720119  RH  023%=      5-min Rain = 0
KSP1 202335Z 12006G12KT 37/12 A2998 RMK A01 T03720118  RH  023%=      5-min Rain = 0
KSP1 202340Z 15007KT 37/12 A2998 RMK A01 T03720118  RH  023%=      5-min Rain = 0
KSP1 202345Z 15007G16KT 37/12 A2998 RMK A01 T03720118  RH  023%=      5-min Rain = 0
KSP1 202350Z 16009G14KT 37/12 A2998 RMK A01 T03710117  RH  023%=      5-min Rain = 0
KSP1 202355Z 16008KT 37/12 A2998 RMK A01 T03690118  RH  023%=      5-min Rain = 0
KSP1 210000Z 15010KT 37/12 A2998 RMK A01 T03670121  RH  024%=      5-min Rain = 0
KSP1 210005Z 16009KT 37/12 A2998 RMK A01 T03660121  RH  024%=      5-min Rain = 0
KSP1 210010Z 15009G14KT 37/12 A2998 RMK A01 T03650120  RH  024%=      5-min Rain = 0
KSP1 210015Z 15008G13KT 36/13 A2998 RMK A01 T03630125  RH  025%=      5-min Rain = 0
KSP1 210020Z 13006G11KT 36/13 A2998 RMK A01 T03600126  RH  025%=      5-min Rain = 0
KSP1 210025Z 15008KT 36/13 A2998 RMK A01 T03600125  RH  025%=      5-min Rain = 0
KSP1 210030Z 15008KT 36/13 A2998 RMK A01 T03590126  RH  026%=      5-min Rain = 0
KSP1 210035Z 15008G13KT 36/13 A2998 RMK A01 T03560128  RH  026%=      5-min Rain = 0
KSP1 210040Z 15009KT 36/13 A2998 RMK A01 T03550129  RH  027%=      5-min Rain = 0
KSP1 210045Z 15007G12KT 35/13 A2998 RMK A01 T03530134  RH  028%=      5-min Rain = 0
KSP1 210050Z 15008KT 35/14 A2998 RMK A01 T03500137  RH  029%=      5-min Rain = 0
KSP1 210055Z 15007KT 35/14 A2998 RMK A01 T03470138  RH  030%=      5-min Rain = 0
KSP1 210100Z 15007KT 34/14 A2998 RMK A01 T03440138  RH  030%=      5-min Rain = 0
KSP1 210105Z 14007KT 34/14 A2998 RMK A01 T03410138  RH  031%=      5-min Rain = 0
KSP1 210110Z 14007KT 34/14 A2998 RMK A01 T03380139  RH  031%=      5-min Rain = 0
KSP1 210115Z 14007KT 34/14 A2999 RMK A01 T03360139  RH  032%=      5-min Rain = 0
KSP1 210120Z 14006KT 33/14 A2999 RMK A01 T03330139  RH  032%=      5-min Rain = 0
KSP1 210125Z 14006KT 33/14 A2999 RMK A01 T03300139  RH  033%=      5-min Rain = 0
KSP1 210130Z 14006KT 33/14 A2999 RMK A01 T03270140  RH  034%=      5-min Rain = 0
KSP1 210135Z 14006KT 33/14 A2999 RMK A01 T03250141  RH  034%=      5-min Rain = 0
KSP1 210140Z 15006KT 32/14 A30 RMK A01 T03230142  RH  035%=      5-min Rain = 0
KSP1 210145Z 14006KT 32/14 A30 RMK A01 T03210143  RH  036%=      5-min Rain = 0
KSP1 210150Z 15006KT 32/14 A30 RMK A01 T03170144  RH  037%=      5-min Rain = 0
KSP1 210155Z 15005KT 31/15 A30 RMK A01 T03140145  RH  037%=      5-min Rain = 0
KSP1 210200Z 15005KT 31/15 A30 RMK A01 T03110146  RH  038%=      5-min Rain = 0
KSP1 210205Z 15005KT 31/15 A30 RMK A01 T03100145  RH  038%=      5-min Rain = 0
KSP1 210210Z 15005KT 31/15 A30 RMK A01 T03090145  RH  039%=      5-min Rain = 0
KSP1 210215Z 15005KT 31/15 A30 RMK A01 T03070145  RH  039%=      5-min Rain = 0
KSP1 210220Z 15005KT 31/14 A30 RMK A01 T03060144  RH  039%=      5-min Rain = 0
KSP1 210225Z 15005KT 30/14 A30 RMK A01 T03040144  RH  039%=      5-min Rain = 0
KSP1 210230Z 15005KT 30/14 A30 RMK A01 T03020144  RH  040%=      5-min Rain = 0
KSP1 210235Z 15005KT 30/14 A3001 RMK A01 T03000144  RH  040%=      5-min Rain = 0
KSP1 210240Z 14004KT 30/14 A3001 RMK A01 T02980144  RH  041%=      5-min Rain = 0
KSP1 210245Z 14003KT 30/14 A3001 RMK A01 T02970144  RH  041%=      5-min Rain = 0
KSP1 210250Z 14003KT 30/15 A3002 RMK A01 T02960145  RH  042%=      5-min Rain = 0
KSP1 210255Z 13003KT 30/15 A3002 RMK A01 T02960145  RH  041%=      5-min Rain = 0
KSP1 210300Z 12003KT 30/15 A3002 RMK A01 T02970146  RH  042%=      5-min Rain = 0
KSP1 210305Z 12003KT 30/15 A3002 RMK A01 T02960147  RH  042%=      5-min Rain = 0
KSP1 210310Z 12003KT 29/15 A3003 RMK A01 T02940148  RH  043%=      5-min Rain = 0
KSP1 210315Z 13004KT 29/15 A3003 RMK A01 T02940148  RH  043%=      5-min Rain = 0
KSP1 210320Z 13003KT 29/15 A3003 RMK A01 T02930149  RH  043%=      5-min Rain = 0
KSP1 210325Z 13004KT 29/15 A3003 RMK A01 T02920149  RH  044%=      5-min Rain = 0
KSP1 210330Z 13003KT 29/15 A3003 RMK A01 T02910149  RH  044%=      5-min Rain = 0
KSP1 210335Z 13004KT 29/15 A3003 RMK A01 T02920148  RH  044%=      5-min Rain = 0
KSP1 210340Z 13004KT 29/15 A3003 RMK A01 T02910149  RH  044%=      5-min Rain = 0
KSP1 210345Z 13004KT 29/15 A3003 RMK A01 T02900149  RH  044%=      5-min Rain = 0
KSP1 210350Z 13004KT 29/15 A3003 RMK A01 T02870150  RH  045%=      5-min Rain = 0
KSP1 210355Z 14004KT 28/15 A3003 RMK A01 T02840150  RH  046%=      5-min Rain = 0
KSP1 210400Z 14004KT 28/15 A3003 RMK A01 T02830150  RH  047%=      5-min Rain = 0
KSP1 210405Z 13003KT 28/15 A3003 RMK A01 T02810151  RH  047%=      5-min Rain = 0
KSP1 210410Z 14004KT 28/15 A3003 RMK A01 T02800151  RH  047%=      5-min Rain = 0
KSP1 210415Z 14004KT 28/15 A3003 RMK A01 T02780151  RH  048%=      5-min Rain = 0
KSP1 210420Z 14004KT 28/15 A3003 RMK A01 T02760152  RH  049%=      5-min Rain = 0
KSP1 210425Z 13005KT 28/15 A3003 RMK A01 T02790151  RH  048%=      5-min Rain = 0
KSP1 210430Z 13005KT 28/15 A3003 RMK A01 T02810151  RH  047%=      5-min Rain = 0
KSP1 210435Z 14005KT 28/15 A3003 RMK A01 T02810151  RH  047%=      5-min Rain = 0
KSP1 210440Z 13005KT 28/15 A3003 RMK A01 T02810150  RH  047%=      5-min Rain = 0
KSP1 210445Z 13005KT 28/15 A3003 RMK A01 T02810150  RH  047%=      5-min Rain = 0
KSP1 210450Z 13004KT 28/15 A3003 RMK A01 T02800150  RH  047%=      5-min Rain = 0
KSP1 210455Z 12004KT 28/15 A3003 RMK A01 T02790150  RH  047%=      5-min Rain = 0

Page generated in 0.0089 seconds.